sensor_id;sensor_type;location;lat;lon;timestamp;P1;durP1;ratioP1;P2;durP2;ratioP2
79139;SDS011;68546;59.142;37.948;2023-04-23T00:01:02;8.75;;;3.00;;
79139;SDS011;68546;59.142;37.948;2023-04-23T00:03:30;9.32;;;2.78;;
79139;SDS011;68546;59.142;37.948;2023-04-23T00:06:04;9.57;;;2.88;;
79139;SDS011;68546;59.142;37.948;2023-04-23T00:08:33;11.23;;;4.17;;
79139;SDS011;68546;59.142;37.948;2023-04-23T00:11:00;11.55;;;3.67;;
79139;SDS011;68546;59.142;37.948;2023-04-23T00:13:27;15.95;;;4.22;;
79139;SDS011;68546;59.142;37.948;2023-04-23T00:15:53;15.68;;;4.15;;
79139;SDS011;68546;59.142;37.948;2023-04-23T00:18:20;12.50;;;4.47;;
79139;SDS011;68546;59.142;37.948;2023-04-23T00:20:46;13.57;;;4.20;;
79139;SDS011;68546;59.142;37.948;2023-04-23T00:23:13;31.98;;;9.27;;
79139;SDS011;68546;59.142;37.948;2023-04-23T00:25:39;21.60;;;4.95;;
79139;SDS011;68546;59.142;37.948;2023-04-23T00:28:05;11.57;;;3.88;;
79139;SDS011;68546;59.142;37.948;2023-04-23T00:30:32;13.00;;;4.07;;
79139;SDS011;68546;59.142;37.948;2023-04-23T00:32:58;21.73;;;4.47;;
79139;SDS011;68546;59.142;37.948;2023-04-23T00:35:25;16.13;;;4.07;;
79139;SDS011;68546;59.142;37.948;2023-04-23T00:37:51;14.50;;;3.10;;
79139;SDS011;68546;59.142;37.948;2023-04-23T00:40:20;8.80;;;2.30;;
79139;SDS011;68546;59.142;37.948;2023-04-23T00:42:46;11.13;;;2.47;;
79139;SDS011;68546;59.142;37.948;2023-04-23T00:45:13;7.53;;;1.80;;
79139;SDS011;68546;59.142;37.948;2023-04-23T00:47:40;6.07;;;1.73;;
79139;SDS011;68546;59.142;37.948;2023-04-23T00:50:08;14.00;;;1.48;;
79139;SDS011;68546;59.142;37.948;2023-04-23T00:52:34;6.57;;;2.63;;
79139;SDS011;68546;59.142;37.948;2023-04-23T00:55:01;7.25;;;1.48;;
79139;SDS011;68546;59.142;37.948;2023-04-23T00:57:28;6.33;;;1.57;;
79139;SDS011;68546;59.142;37.948;2023-04-23T00:59:54;5.00;;;1.55;;
79139;SDS011;68546;59.142;37.948;2023-04-23T01:02:23;5.18;;;1.50;;
79139;SDS011;68546;59.142;37.948;2023-04-23T01:04:53;5.32;;;1.35;;
79139;SDS011;68546;59.142;37.948;2023-04-23T01:07:20;10.23;;;1.80;;
79139;SDS011;68546;59.142;37.948;2023-04-23T01:09:50;6.13;;;1.43;;
79139;SDS011;68546;59.142;37.948;2023-04-23T01:12:17;5.47;;;1.63;;
79139;SDS011;68546;59.142;37.948;2023-04-23T01:14:43;7.13;;;1.38;;
79139;SDS011;68546;59.142;37.948;2023-04-23T01:17:10;8.95;;;1.55;;
79139;SDS011;68546;59.142;37.948;2023-04-23T01:19:37;4.50;;;1.48;;
79139;SDS011;68546;59.142;37.948;2023-04-23T01:22:11;6.27;;;1.67;;
79139;SDS011;68546;59.142;37.948;2023-04-23T01:24:38;7.00;;;1.45;;
79139;SDS011;68546;59.142;37.948;2023-04-23T01:27:07;4.97;;;1.40;;
79139;SDS011;68546;59.142;37.948;2023-04-23T01:29:34;4.30;;;1.30;;
79139;SDS011;68546;59.142;37.948;2023-04-23T01:32:01;4.55;;;1.40;;
79139;SDS011;68546;59.142;37.948;2023-04-23T01:34:29;6.93;;;1.40;;
79139;SDS011;68546;59.142;37.948;2023-04-23T01:36:56;4.35;;;1.30;;
79139;SDS011;68546;59.142;37.948;2023-04-23T01:39:24;8.70;;;1.80;;
79139;SDS011;68546;59.142;37.948;2023-04-23T01:41:51;5.75;;;1.52;;
79139;SDS011;68546;59.142;37.948;2023-04-23T01:44:18;6.22;;;1.75;;
79139;SDS011;68546;59.142;37.948;2023-04-23T01:46:44;6.17;;;1.30;;
79139;SDS011;68546;59.142;37.948;2023-04-23T01:49:13;4.75;;;1.75;;
79139;SDS011;68546;59.142;37.948;2023-04-23T01:51:40;7.38;;;1.35;;
79139;SDS011;68546;59.142;37.948;2023-04-23T01:54:07;7.38;;;1.30;;
79139;SDS011;68546;59.142;37.948;2023-04-23T01:56:34;9.90;;;1.50;;
79139;SDS011;68546;59.142;37.948;2023-04-23T01:59:01;7.23;;;1.83;;
79139;SDS011;68546;59.142;37.948;2023-04-23T02:01:43;8.75;;;1.75;;
79139;SDS011;68546;59.142;37.948;2023-04-23T02:04:11;5.18;;;1.50;;
79139;SDS011;68546;59.142;37.948;2023-04-23T02:06:39;6.30;;;1.58;;
79139;SDS011;68546;59.142;37.948;2023-04-23T02:09:07;5.05;;;1.25;;
79139;SDS011;68546;59.142;37.948;2023-04-23T02:11:33;3.77;;;1.00;;
79139;SDS011;68546;59.142;37.948;2023-04-23T02:14:00;6.97;;;1.45;;
79139;SDS011;68546;59.142;37.948;2023-04-23T02:16:27;5.15;;;1.40;;
79139;SDS011;68546;59.142;37.948;2023-04-23T02:18:53;4.35;;;1.30;;
79139;SDS011;68546;59.142;37.948;2023-04-23T02:21:21;5.50;;;1.20;;
79139;SDS011;68546;59.142;37.948;2023-04-23T02:23:50;6.63;;;1.33;;
79139;SDS011;68546;59.142;37.948;2023-04-23T02:26:16;7.57;;;1.40;;
79139;SDS011;68546;59.142;37.948;2023-04-23T02:28:44;4.90;;;1.30;;
79139;SDS011;68546;59.142;37.948;2023-04-23T02:31:13;13.40;;;2.10;;
79139;SDS011;68546;59.142;37.948;2023-04-23T02:33:41;7.13;;;1.67;;
79139;SDS011;68546;59.142;37.948;2023-04-23T02:36:07;6.87;;;1.67;;
79139;SDS011;68546;59.142;37.948;2023-04-23T02:38:37;10.90;;;2.05;;
79139;SDS011;68546;59.142;37.948;2023-04-23T02:41:07;12.65;;;2.53;;
79139;SDS011;68546;59.142;37.948;2023-04-23T02:43:33;9.80;;;2.28;;
79139;SDS011;68546;59.142;37.948;2023-04-23T02:45:59;9.98;;;1.52;;
79139;SDS011;68546;59.142;37.948;2023-04-23T02:48:36;9.23;;;1.87;;
79139;SDS011;68546;59.142;37.948;2023-04-23T02:51:09;14.90;;;2.05;;
79139;SDS011;68546;59.142;37.948;2023-04-23T02:53:37;13.77;;;1.98;;
79139;SDS011;68546;59.142;37.948;2023-04-23T02:56:03;8.23;;;1.55;;
79139;SDS011;68546;59.142;37.948;2023-04-23T02:58:30;7.65;;;1.85;;
79139;SDS011;68546;59.142;37.948;2023-04-23T03:00:59;5.23;;;1.23;;
79139;SDS011;68546;59.142;37.948;2023-04-23T03:03:27;9.38;;;1.70;;
79139;SDS011;68546;59.142;37.948;2023-04-23T03:05:57;9.48;;;1.35;;
79139;SDS011;68546;59.142;37.948;2023-04-23T03:08:24;6.97;;;1.55;;
79139;SDS011;68546;59.142;37.948;2023-04-23T03:10:50;6.78;;;1.85;;
79139;SDS011;68546;59.142;37.948;2023-04-23T03:13:17;9.53;;;1.80;;
79139;SDS011;68546;59.142;37.948;2023-04-23T03:15:43;6.15;;;1.80;;
79139;SDS011;68546;59.142;37.948;2023-04-23T03:18:09;7.28;;;1.48;;
79139;SDS011;68546;59.142;37.948;2023-04-23T03:20:37;8.73;;;1.70;;
79139;SDS011;68546;59.142;37.948;2023-04-23T03:23:03;5.82;;;1.55;;
79139;SDS011;68546;59.142;37.948;2023-04-23T03:25:32;8.07;;;2.10;;
79139;SDS011;68546;59.142;37.948;2023-04-23T03:27:59;6.95;;;1.60;;
79139;SDS011;68546;59.142;37.948;2023-04-23T03:30:26;11.45;;;1.75;;
79139;SDS011;68546;59.142;37.948;2023-04-23T03:32:56;9.18;;;1.58;;
79139;SDS011;68546;59.142;37.948;2023-04-23T03:35:23;6.32;;;1.48;;
79139;SDS011;68546;59.142;37.948;2023-04-23T03:37:52;4.97;;;1.97;;
79139;SDS011;68546;59.142;37.948;2023-04-23T03:40:19;12.57;;;2.47;;
79139;SDS011;68546;59.142;37.948;2023-04-23T03:42:48;7.75;;;2.00;;
79139;SDS011;68546;59.142;37.948;2023-04-23T03:45:18;11.43;;;2.38;;
79139;SDS011;68546;59.142;37.948;2023-04-23T03:47:44;14.85;;;1.90;;
79139;SDS011;68546;59.142;37.948;2023-04-23T03:50:11;7.50;;;2.00;;
79139;SDS011;68546;59.142;37.948;2023-04-23T03:52:39;6.18;;;1.85;;
79139;SDS011;68546;59.142;37.948;2023-04-23T03:55:10;7.03;;;1.75;;
79139;SDS011;68546;59.142;37.948;2023-04-23T03:57:42;9.82;;;2.10;;
79139;SDS011;68546;59.142;37.948;2023-04-23T04:00:20;9.52;;;2.53;;
79139;SDS011;68546;59.142;37.948;2023-04-23T04:02:46;12.80;;;2.37;;
79139;SDS011;68546;59.142;37.948;2023-04-23T04:05:13;13.25;;;3.70;;
79139;SDS011;68546;59.142;37.948;2023-04-23T04:07:39;18.10;;;3.53;;
79139;SDS011;68546;59.142;37.948;2023-04-23T04:10:06;14.52;;;3.15;;
79139;SDS011;68546;59.142;37.948;2023-04-23T04:12:32;15.18;;;2.55;;
79139;SDS011;68546;59.142;37.948;2023-04-23T04:14:59;15.17;;;3.10;;
79139;SDS011;68546;59.142;37.948;2023-04-23T04:17:25;16.70;;;3.65;;
79139;SDS011;68546;59.142;37.948;2023-04-23T04:19:51;15.27;;;2.70;;
79139;SDS011;68546;59.142;37.948;2023-04-23T04:22:17;14.95;;;2.58;;
79139;SDS011;68546;59.142;37.948;2023-04-23T04:24:44;11.18;;;2.70;;
79139;SDS011;68546;59.142;37.948;2023-04-23T04:27:12;10.37;;;2.20;;
79139;SDS011;68546;59.142;37.948;2023-04-23T04:29:39;10.05;;;2.33;;
79139;SDS011;68546;59.142;37.948;2023-04-23T04:32:08;9.63;;;2.35;;
79139;SDS011;68546;59.142;37.948;2023-04-23T04:34:36;14.90;;;2.60;;
79139;SDS011;68546;59.142;37.948;2023-04-23T04:37:02;8.73;;;2.40;;
79139;SDS011;68546;59.142;37.948;2023-04-23T04:39:29;10.80;;;2.33;;
79139;SDS011;68546;59.142;37.948;2023-04-23T04:41:55;14.73;;;3.00;;
79139;SDS011;68546;59.142;37.948;2023-04-23T04:44:22;13.30;;;3.13;;
79139;SDS011;68546;59.142;37.948;2023-04-23T04:46:49;12.70;;;2.80;;
79139;SDS011;68546;59.142;37.948;2023-04-23T04:49:17;16.95;;;2.90;;
79139;SDS011;68546;59.142;37.948;2023-04-23T04:51:44;10.20;;;2.60;;
79139;SDS011;68546;59.142;37.948;2023-04-23T04:54:10;20.45;;;4.22;;
79139;SDS011;68546;59.142;37.948;2023-04-23T04:56:37;18.30;;;3.47;;
79139;SDS011;68546;59.142;37.948;2023-04-23T04:59:03;12.45;;;2.83;;
79139;SDS011;68546;59.142;37.948;2023-04-23T05:01:30;16.05;;;3.10;;
79139;SDS011;68546;59.142;37.948;2023-04-23T05:03:58;8.67;;;2.10;;
79139;SDS011;68546;59.142;37.948;2023-04-23T05:06:25;17.90;;;2.47;;
79139;SDS011;68546;59.142;37.948;2023-04-23T05:08:53;14.15;;;2.58;;
79139;SDS011;68546;59.142;37.948;2023-04-23T05:11:19;13.70;;;2.80;;
79139;SDS011;68546;59.142;37.948;2023-04-23T05:13:46;16.05;;;3.83;;
79139;SDS011;68546;59.142;37.948;2023-04-23T05:16:13;12.00;;;3.23;;
79139;SDS011;68546;59.142;37.948;2023-04-23T05:18:39;14.18;;;2.85;;
79139;SDS011;68546;59.142;37.948;2023-04-23T05:21:06;14.50;;;3.10;;
79139;SDS011;68546;59.142;37.948;2023-04-23T05:23:34;18.40;;;3.80;;
79139;SDS011;68546;59.142;37.948;2023-04-23T05:26:01;15.13;;;2.63;;
79139;SDS011;68546;59.142;37.948;2023-04-23T05:28:30;14.33;;;2.50;;
79139;SDS011;68546;59.142;37.948;2023-04-23T05:30:56;12.43;;;2.28;;
79139;SDS011;68546;59.142;37.948;2023-04-23T05:33:23;10.38;;;2.65;;
79139;SDS011;68546;59.142;37.948;2023-04-23T05:35:51;16.00;;;2.47;;
79139;SDS011;68546;59.142;37.948;2023-04-23T05:38:17;14.57;;;2.97;;
79139;SDS011;68546;59.142;37.948;2023-04-23T05:40:43;9.50;;;2.23;;
79139;SDS011;68546;59.142;37.948;2023-04-23T05:43:11;12.45;;;2.55;;
79139;SDS011;68546;59.142;37.948;2023-04-23T05:45:37;11.10;;;2.53;;
79139;SDS011;68546;59.142;37.948;2023-04-23T05:48:06;14.07;;;2.75;;
79139;SDS011;68546;59.142;37.948;2023-04-23T05:50:32;6.70;;;1.88;;
79139;SDS011;68546;59.142;37.948;2023-04-23T05:52:59;7.00;;;2.40;;
79139;SDS011;68546;59.142;37.948;2023-04-23T05:55:25;10.13;;;2.70;;
79139;SDS011;68546;59.142;37.948;2023-04-23T05:57:51;8.82;;;3.40;;
79139;SDS011;68546;59.142;37.948;2023-04-23T06:00:19;9.13;;;2.40;;
79139;SDS011;68546;59.142;37.948;2023-04-23T06:02:46;5.50;;;1.73;;
79139;SDS011;68546;59.142;37.948;2023-04-23T06:05:12;7.60;;;1.63;;
79139;SDS011;68546;59.142;37.948;2023-04-23T06:07:39;10.63;;;1.80;;
79139;SDS011;68546;59.142;37.948;2023-04-23T06:10:06;9.02;;;2.20;;
79139;SDS011;68546;59.142;37.948;2023-04-23T06:12:33;8.13;;;3.00;;
79139;SDS011;68546;59.142;37.948;2023-04-23T06:15:05;5.60;;;1.92;;
79139;SDS011;68546;59.142;37.948;2023-04-23T06:17:33;7.63;;;1.93;;
79139;SDS011;68546;59.142;37.948;2023-04-23T06:20:01;6.03;;;1.63;;
79139;SDS011;68546;59.142;37.948;2023-04-23T06:22:30;8.48;;;1.88;;
79139;SDS011;68546;59.142;37.948;2023-04-23T06:24:57;13.65;;;2.35;;
79139;SDS011;68546;59.142;37.948;2023-04-23T06:27:24;7.32;;;1.73;;
79139;SDS011;68546;59.142;37.948;2023-04-23T06:29:53;5.70;;;1.53;;
79139;SDS011;68546;59.142;37.948;2023-04-23T06:32:20;8.93;;;1.38;;
79139;SDS011;68546;59.142;37.948;2023-04-23T06:34:47;7.13;;;2.05;;
79139;SDS011;68546;59.142;37.948;2023-04-23T06:37:13;5.47;;;1.40;;
79139;SDS011;68546;59.142;37.948;2023-04-23T06:39:40;8.05;;;1.50;;
79139;SDS011;68546;59.142;37.948;2023-04-23T06:42:06;5.57;;;1.33;;
79139;SDS011;68546;59.142;37.948;2023-04-23T06:44:43;6.90;;;1.42;;
79139;SDS011;68546;59.142;37.948;2023-04-23T06:47:11;6.18;;;1.55;;
79139;SDS011;68546;59.142;37.948;2023-04-23T06:49:38;7.60;;;1.58;;
79139;SDS011;68546;59.142;37.948;2023-04-23T06:52:05;8.73;;;2.15;;
79139;SDS011;68546;59.142;37.948;2023-04-23T06:54:32;6.30;;;1.60;;
79139;SDS011;68546;59.142;37.948;2023-04-23T06:56:58;7.93;;;1.20;;
79139;SDS011;68546;59.142;37.948;2023-04-23T06:59:26;7.55;;;1.10;;
79139;SDS011;68546;59.142;37.948;2023-04-23T07:01:54;7.10;;;1.20;;
79139;SDS011;68546;59.142;37.948;2023-04-23T07:04:21;4.03;;;0.98;;
79139;SDS011;68546;59.142;37.948;2023-04-23T07:06:47;6.60;;;1.10;;
79139;SDS011;68546;59.142;37.948;2023-04-23T07:09:14;4.60;;;1.20;;
79139;SDS011;68546;59.142;37.948;2023-04-23T07:11:40;7.03;;;1.27;;
79139;SDS011;68546;59.142;37.948;2023-04-23T07:14:06;7.05;;;1.17;;
79139;SDS011;68546;59.142;37.948;2023-04-23T07:16:33;6.55;;;1.20;;
79139;SDS011;68546;59.142;37.948;2023-04-23T07:19:00;5.60;;;1.43;;
79139;SDS011;68546;59.142;37.948;2023-04-23T07:21:27;5.45;;;1.30;;
79139;SDS011;68546;59.142;37.948;2023-04-23T07:23:57;6.50;;;1.40;;
79139;SDS011;68546;59.142;37.948;2023-04-23T07:26:33;8.48;;;1.30;;
79139;SDS011;68546;59.142;37.948;2023-04-23T07:29:00;5.35;;;1.10;;
79139;SDS011;68546;59.142;37.948;2023-04-23T07:31:28;4.43;;;1.10;;
79139;SDS011;68546;59.142;37.948;2023-04-23T07:34:01;5.45;;;1.35;;
79139;SDS011;68546;59.142;37.948;2023-04-23T07:36:28;6.38;;;1.90;;
79139;SDS011;68546;59.142;37.948;2023-04-23T07:38:56;5.75;;;1.40;;
79139;SDS011;68546;59.142;37.948;2023-04-23T07:41:23;4.60;;;1.90;;
79139;SDS011;68546;59.142;37.948;2023-04-23T07:43:49;6.10;;;1.90;;
79139;SDS011;68546;59.142;37.948;2023-04-23T07:46:16;6.80;;;2.60;;
79139;SDS011;68546;59.142;37.948;2023-04-23T07:48:42;8.93;;;3.50;;
79139;SDS011;68546;59.142;37.948;2023-04-23T07:51:08;8.40;;;3.30;;
79139;SDS011;68546;59.142;37.948;2023-04-23T07:53:37;11.50;;;6.07;;
79139;SDS011;68546;59.142;37.948;2023-04-23T07:56:04;9.43;;;2.60;;
79139;SDS011;68546;59.142;37.948;2023-04-23T07:58:30;10.45;;;3.42;;
79139;SDS011;68546;59.142;37.948;2023-04-23T08:00:57;7.13;;;3.78;;
79139;SDS011;68546;59.142;37.948;2023-04-23T08:03:24;11.55;;;5.80;;
79139;SDS011;68546;59.142;37.948;2023-04-23T08:05:51;10.20;;;4.45;;
79139;SDS011;68546;59.142;37.948;2023-04-23T08:08:20;7.20;;;3.77;;
79139;SDS011;68546;59.142;37.948;2023-04-23T08:10:46;22.83;;;3.90;;
79139;SDS011;68546;59.142;37.948;2023-04-23T08:13:14;20.20;;;4.15;;
79139;SDS011;68546;59.142;37.948;2023-04-23T08:15:42;13.27;;;3.60;;
79139;SDS011;68546;59.142;37.948;2023-04-23T08:18:08;13.60;;;2.90;;
79139;SDS011;68546;59.142;37.948;2023-04-23T08:20:36;12.87;;;3.50;;
79139;SDS011;68546;59.142;37.948;2023-04-23T08:23:02;10.23;;;2.60;;
79139;SDS011;68546;59.142;37.948;2023-04-23T08:25:29;10.38;;;3.65;;
79139;SDS011;68546;59.142;37.948;2023-04-23T08:27:57;9.90;;;3.03;;
79139;SDS011;68546;59.142;37.948;2023-04-23T08:30:24;8.70;;;3.60;;
79139;SDS011;68546;59.142;37.948;2023-04-23T08:32:51;7.77;;;3.73;;
79139;SDS011;68546;59.142;37.948;2023-04-23T08:35:22;11.30;;;2.97;;
79139;SDS011;68546;59.142;37.948;2023-04-23T08:37:48;7.90;;;1.90;;
79139;SDS011;68546;59.142;37.948;2023-04-23T08:40:15;13.32;;;2.50;;
79139;SDS011;68546;59.142;37.948;2023-04-23T08:42:52;9.10;;;2.20;;
79139;SDS011;68546;59.142;37.948;2023-04-23T08:45:22;6.77;;;2.43;;
79139;SDS011;68546;59.142;37.948;2023-04-23T08:47:50;5.95;;;2.40;;
79139;SDS011;68546;59.142;37.948;2023-04-23T08:50:19;8.52;;;2.20;;
79139;SDS011;68546;59.142;37.948;2023-04-23T08:52:49;8.27;;;1.85;;
79139;SDS011;68546;59.142;37.948;2023-04-23T08:55:18;7.55;;;1.92;;
79139;SDS011;68546;59.142;37.948;2023-04-23T08:57:46;7.17;;;2.40;;
79139;SDS011;68546;59.142;37.948;2023-04-23T09:00:15;8.38;;;2.60;;
79139;SDS011;68546;59.142;37.948;2023-04-23T09:02:44;8.98;;;2.10;;
79139;SDS011;68546;59.142;37.948;2023-04-23T09:05:14;9.63;;;3.95;;
79139;SDS011;68546;59.142;37.948;2023-04-23T09:07:41;8.88;;;3.38;;
79139;SDS011;68546;59.142;37.948;2023-04-23T09:10:09;7.03;;;2.23;;
79139;SDS011;68546;59.142;37.948;2023-04-23T09:12:38;7.55;;;2.38;;
79139;SDS011;68546;59.142;37.948;2023-04-23T09:15:06;4.97;;;1.40;;
79139;SDS011;68546;59.142;37.948;2023-04-23T09:17:38;4.75;;;1.10;;
79139;SDS011;68546;59.142;37.948;2023-04-23T09:20:06;5.43;;;1.10;;
79139;SDS011;68546;59.142;37.948;2023-04-23T09:25:08;5.35;;;1.90;;
79139;SDS011;68546;59.142;37.948;2023-04-23T09:27:36;5.50;;;1.40;;
79139;SDS011;68546;59.142;37.948;2023-04-23T09:30:06;5.60;;;1.23;;
79139;SDS011;68546;59.142;37.948;2023-04-23T09:32:36;4.43;;;1.10;;
79139;SDS011;68546;59.142;37.948;2023-04-23T09:35:07;5.90;;;1.37;;
79139;SDS011;68546;59.142;37.948;2023-04-23T09:37:35;13.73;;;1.63;;
79139;SDS011;68546;59.142;37.948;2023-04-23T09:40:03;8.45;;;2.20;;
79139;SDS011;68546;59.142;37.948;2023-04-23T09:42:34;8.60;;;1.75;;
79139;SDS011;68546;59.142;37.948;2023-04-23T09:45:05;4.15;;;1.20;;
79139;SDS011;68546;59.142;37.948;2023-04-23T09:47:33;7.23;;;1.60;;
79139;SDS011;68546;59.142;37.948;2023-04-23T09:50:02;4.35;;;1.38;;
79139;SDS011;68546;59.142;37.948;2023-04-23T09:52:31;8.38;;;2.10;;
79139;SDS011;68546;59.142;37.948;2023-04-23T09:55:01;6.68;;;1.80;;
79139;SDS011;68546;59.142;37.948;2023-04-23T09:57:36;8.75;;;1.92;;
79139;SDS011;68546;59.142;37.948;2023-04-23T10:00:15;8.10;;;1.63;;
79139;SDS011;68546;59.142;37.948;2023-04-23T10:02:48;7.38;;;1.80;;
79139;SDS011;68546;59.142;37.948;2023-04-23T10:05:17;5.93;;;1.60;;
79139;SDS011;68546;59.142;37.948;2023-04-23T10:07:45;5.45;;;2.20;;
79139;SDS011;68546;59.142;37.948;2023-04-23T10:10:14;7.20;;;2.22;;
79139;SDS011;68546;59.142;37.948;2023-04-23T10:12:42;6.40;;;2.70;;
79139;SDS011;68546;59.142;37.948;2023-04-23T10:15:09;6.95;;;1.90;;
79139;SDS011;68546;59.142;37.948;2023-04-23T10:17:36;5.22;;;1.85;;
79139;SDS011;68546;59.142;37.948;2023-04-23T10:20:04;7.28;;;2.50;;
79139;SDS011;68546;59.142;37.948;2023-04-23T10:22:34;10.90;;;2.50;;
79139;SDS011;68546;59.142;37.948;2023-04-23T10:25:03;9.93;;;2.90;;
79139;SDS011;68546;59.142;37.948;2023-04-23T10:27:36;7.35;;;2.13;;
79139;SDS011;68546;59.142;37.948;2023-04-23T10:30:07;8.20;;;2.33;;
79139;SDS011;68546;59.142;37.948;2023-04-23T10:32:35;7.28;;;1.83;;
79139;SDS011;68546;59.142;37.948;2023-04-23T10:35:03;6.35;;;1.98;;
79139;SDS011;68546;59.142;37.948;2023-04-23T10:37:31;11.77;;;2.20;;
79139;SDS011;68546;59.142;37.948;2023-04-23T10:40:09;9.10;;;1.77;;
79139;SDS011;68546;59.142;37.948;2023-04-23T10:42:39;8.40;;;1.88;;
79139;SDS011;68546;59.142;37.948;2023-04-23T10:45:12;9.20;;;2.10;;
79139;SDS011;68546;59.142;37.948;2023-04-23T10:47:41;16.08;;;4.90;;
79139;SDS011;68546;59.142;37.948;2023-04-23T10:50:17;9.07;;;2.97;;
79139;SDS011;68546;59.142;37.948;2023-04-23T10:52:51;8.98;;;2.97;;
79139;SDS011;68546;59.142;37.948;2023-04-23T10:55:20;11.77;;;2.80;;
79139;SDS011;68546;59.142;37.948;2023-04-23T10:58:03;8.23;;;2.13;;
79139;SDS011;68546;59.142;37.948;2023-04-23T11:06:03;13.65;;;5.70;;
79139;SDS011;68546;59.142;37.948;2023-04-23T11:08:31;20.17;;;3.60;;
79139;SDS011;68546;59.142;37.948;2023-04-23T11:11:00;12.02;;;2.70;;
79139;SDS011;68546;59.142;37.948;2023-04-23T11:13:31;26.50;;;2.92;;
79139;SDS011;68546;59.142;37.948;2023-04-23T11:16:16;42.77;;;5.03;;
79139;SDS011;68546;59.142;37.948;2023-04-23T11:24:34;7.18;;;1.70;;
79139;SDS011;68546;59.142;37.948;2023-04-23T11:27:05;8.88;;;1.80;;
79139;SDS011;68546;59.142;37.948;2023-04-23T11:29:32;8.80;;;1.80;;
79139;SDS011;68546;59.142;37.948;2023-04-23T11:31:59;6.35;;;1.60;;
79139;SDS011;68546;59.142;37.948;2023-04-23T11:34:26;6.32;;;1.70;;
79139;SDS011;68546;59.142;37.948;2023-04-23T11:36:53;10.70;;;1.90;;
79139;SDS011;68546;59.142;37.948;2023-04-23T11:39:23;11.80;;;2.65;;
79139;SDS011;68546;59.142;37.948;2023-04-23T11:41:50;14.90;;;2.70;;
79139;SDS011;68546;59.142;37.948;2023-04-23T11:44:20;7.80;;;2.40;;
79139;SDS011;68546;59.142;37.948;2023-04-23T11:46:47;16.45;;;2.20;;
79139;SDS011;68546;59.142;37.948;2023-04-23T11:49:15;8.18;;;1.75;;
79139;SDS011;68546;59.142;37.948;2023-04-23T11:51:42;11.13;;;2.13;;
79139;SDS011;68546;59.142;37.948;2023-04-23T11:54:09;11.23;;;1.87;;
79139;SDS011;68546;59.142;37.948;2023-04-23T11:56:38;14.45;;;1.92;;
79139;SDS011;68546;59.142;37.948;2023-04-23T11:59:05;10.40;;;1.55;;
79139;SDS011;68546;59.142;37.948;2023-04-23T12:01:42;11.68;;;1.50;;
79139;SDS011;68546;59.142;37.948;2023-04-23T12:06:47;11.37;;;1.50;;
79139;SDS011;68546;59.142;37.948;2023-04-23T12:09:16;13.63;;;3.60;;
79139;SDS011;68546;59.142;37.948;2023-04-23T12:11:44;9.73;;;2.50;;
79139;SDS011;68546;59.142;37.948;2023-04-23T12:14:11;13.50;;;2.42;;
79139;SDS011;68546;59.142;37.948;2023-04-23T12:16:40;9.20;;;2.35;;
79139;SDS011;68546;59.142;37.948;2023-04-23T12:19:08;10.53;;;1.93;;
79139;SDS011;68546;59.142;37.948;2023-04-23T12:21:48;5.22;;;1.15;;
79139;SDS011;68546;59.142;37.948;2023-04-23T12:24:22;9.27;;;1.27;;
79139;SDS011;68546;59.142;37.948;2023-04-23T12:26:53;5.35;;;1.45;;
79139;SDS011;68546;59.142;37.948;2023-04-23T12:29:25;14.95;;;1.92;;
79139;SDS011;68546;59.142;37.948;2023-04-23T12:31:55;7.93;;;2.07;;
79139;SDS011;68546;59.142;37.948;2023-04-23T12:34:23;8.25;;;1.70;;
79139;SDS011;68546;59.142;37.948;2023-04-23T12:36:50;5.35;;;1.40;;
79139;SDS011;68546;59.142;37.948;2023-04-23T12:41:50;5.30;;;1.48;;
79139;SDS011;68546;59.142;37.948;2023-04-23T12:44:18;8.00;;;1.47;;
79139;SDS011;68546;59.142;37.948;2023-04-23T12:46:48;7.45;;;1.42;;
79139;SDS011;68546;59.142;37.948;2023-04-23T12:49:25;11.48;;;2.17;;
79139;SDS011;68546;59.142;37.948;2023-04-23T12:51:54;7.45;;;1.60;;
79139;SDS011;68546;59.142;37.948;2023-04-23T12:54:31;8.77;;;1.85;;
79139;SDS011;68546;59.142;37.948;2023-04-23T12:56:59;5.07;;;1.20;;
79139;SDS011;68546;59.142;37.948;2023-04-23T12:59:28;8.10;;;1.35;;
79139;SDS011;68546;59.142;37.948;2023-04-23T13:01:56;7.13;;;1.27;;
79139;SDS011;68546;59.142;37.948;2023-04-23T13:04:26;5.75;;;1.15;;
79139;SDS011;68546;59.142;37.948;2023-04-23T13:06:57;6.15;;;1.10;;
79139;SDS011;68546;59.142;37.948;2023-04-23T13:09:23;4.27;;;1.40;;
79139;SDS011;68546;59.142;37.948;2023-04-23T13:11:52;5.78;;;1.38;;
79139;SDS011;68546;59.142;37.948;2023-04-23T13:14:19;12.73;;;1.60;;
79139;SDS011;68546;59.142;37.948;2023-04-23T13:16:48;6.45;;;1.20;;
79139;SDS011;68546;59.142;37.948;2023-04-23T13:19:15;6.60;;;1.85;;
79139;SDS011;68546;59.142;37.948;2023-04-23T13:21:41;5.93;;;2.10;;
79139;SDS011;68546;59.142;37.948;2023-04-23T13:24:08;10.02;;;1.60;;
79139;SDS011;68546;59.142;37.948;2023-04-23T13:26:34;7.25;;;1.75;;
79139;SDS011;68546;59.142;37.948;2023-04-23T13:29:01;9.15;;;1.90;;
79139;SDS011;68546;59.142;37.948;2023-04-23T13:31:28;8.32;;;2.20;;
79139;SDS011;68546;59.142;37.948;2023-04-23T13:33:55;7.23;;;2.13;;
79139;SDS011;68546;59.142;37.948;2023-04-23T13:36:23;7.40;;;1.73;;
79139;SDS011;68546;59.142;37.948;2023-04-23T13:38:50;8.48;;;1.65;;
79139;SDS011;68546;59.142;37.948;2023-04-23T13:41:16;7.20;;;1.40;;
79139;SDS011;68546;59.142;37.948;2023-04-23T13:43:43;8.77;;;2.75;;
79139;SDS011;68546;59.142;37.948;2023-04-23T13:46:09;13.33;;;5.47;;
79139;SDS011;68546;59.142;37.948;2023-04-23T13:48:36;7.40;;;2.38;;
79139;SDS011;68546;59.142;37.948;2023-04-23T13:51:03;9.15;;;2.00;;
79139;SDS011;68546;59.142;37.948;2023-04-23T13:53:29;7.60;;;1.30;;
79139;SDS011;68546;59.142;37.948;2023-04-23T13:55:56;4.95;;;1.27;;
79139;SDS011;68546;59.142;37.948;2023-04-23T13:58:24;8.50;;;1.20;;
79139;SDS011;68546;59.142;37.948;2023-04-23T14:00:51;4.90;;;1.10;;
79139;SDS011;68546;59.142;37.948;2023-04-23T14:03:17;10.82;;;2.53;;
79139;SDS011;68546;59.142;37.948;2023-04-23T14:05:45;8.52;;;1.83;;
79139;SDS011;68546;59.142;37.948;2023-04-23T14:08:11;5.43;;;1.13;;
79139;SDS011;68546;59.142;37.948;2023-04-23T14:10:38;13.03;;;2.03;;
79139;SDS011;68546;59.142;37.948;2023-04-23T14:13:05;6.60;;;1.50;;
79139;SDS011;68546;59.142;37.948;2023-04-23T14:15:32;5.95;;;1.25;;
79139;SDS011;68546;59.142;37.948;2023-04-23T14:18:00;9.43;;;3.70;;
79139;SDS011;68546;59.142;37.948;2023-04-23T14:20:26;6.22;;;1.98;;
79139;SDS011;68546;59.142;37.948;2023-04-23T14:23:00;7.80;;;1.53;;
79139;SDS011;68546;59.142;37.948;2023-04-23T14:25:46;6.90;;;1.23;;
79139;SDS011;68546;59.142;37.948;2023-04-23T14:28:28;10.35;;;1.60;;
79139;SDS011;68546;59.142;37.948;2023-04-23T14:31:08;5.28;;;0.98;;
79139;SDS011;68546;59.142;37.948;2023-04-23T14:33:34;16.17;;;1.63;;
79139;SDS011;68546;59.142;37.948;2023-04-23T14:36:01;6.53;;;1.30;;
79139;SDS011;68546;59.142;37.948;2023-04-23T14:38:27;6.25;;;1.38;;
79139;SDS011;68546;59.142;37.948;2023-04-23T14:40:54;5.55;;;1.50;;
79139;SDS011;68546;59.142;37.948;2023-04-23T14:43:20;7.18;;;1.50;;
79139;SDS011;68546;59.142;37.948;2023-04-23T14:45:47;6.65;;;1.77;;
79139;SDS011;68546;59.142;37.948;2023-04-23T14:48:13;6.77;;;1.20;;
79139;SDS011;68546;59.142;37.948;2023-04-23T14:50:39;11.00;;;2.00;;
79139;SDS011;68546;59.142;37.948;2023-04-23T14:53:06;4.65;;;1.15;;
79139;SDS011;68546;59.142;37.948;2023-04-23T14:55:34;7.60;;;1.20;;